createdAt,value
2022-11-24T00:00:29.796Z,6.20
2022-11-24T00:02:56.584Z,6.16
2022-11-24T00:05:23.676Z,6.07
2022-11-24T00:07:50.225Z,6.14
2022-11-24T00:10:17.122Z,6.23
2022-11-24T00:12:43.594Z,6.21
2022-11-24T00:15:10.336Z,6.24
2022-11-24T00:17:37.036Z,6.25
2022-11-24T00:20:03.844Z,6.33
2022-11-24T00:22:30.893Z,6.34
2022-11-24T00:24:57.366Z,6.38
2022-11-24T00:27:23.864Z,6.33
2022-11-24T00:29:50.582Z,6.21
2022-11-24T00:32:17.028Z,6.16
2022-11-24T00:34:43.475Z,6.10
2022-11-24T00:37:10.061Z,6.14
2022-11-24T00:39:36.570Z,6.14
2022-11-24T00:42:03.091Z,5.99
2022-11-24T00:44:30.010Z,5.93
2022-11-24T00:46:56.600Z,5.86
2022-11-24T00:49:23.274Z,6.00
2022-11-24T00:51:49.803Z,5.89
2022-11-24T00:54:16.437Z,6.07
2022-11-24T00:56:42.987Z,6.02
2022-11-24T01:00:36.642Z,5.82
2022-11-24T01:03:03.157Z,5.87
2022-11-24T01:05:29.846Z,5.89
2022-11-24T01:07:56.515Z,5.85
2022-11-24T01:10:23.044Z,5.89
2022-11-24T01:12:50.271Z,5.77
2022-11-24T01:15:17.142Z,5.95
2022-11-24T01:17:43.682Z,6.00
2022-11-24T01:20:10.637Z,6.04
2022-11-24T01:22:39.046Z,6.18
2022-11-24T01:25:06.834Z,6.09
2022-11-24T01:27:33.418Z,6.20
2022-11-24T01:30:07.353Z,6.25
2022-11-24T01:32:36.393Z,6.35
2022-11-24T01:35:06.865Z,6.37
2022-11-24T01:37:33.513Z,6.41
2022-11-24T01:40:00.544Z,6.48
2022-11-24T01:42:36.788Z,6.49
2022-11-24T01:45:41.439Z,6.58
2022-11-24T01:48:15.823Z,6.61
2022-11-24T01:50:43.570Z,6.60
2022-11-24T01:53:12.559Z,6.68
2022-11-24T01:55:40.151Z,6.75
2022-11-24T01:58:13.739Z,6.86
2022-11-24T02:00:44.317Z,6.99
2022-11-24T02:03:15.790Z,7.03
2022-11-24T02:05:49.233Z,7.16
2022-11-24T02:08:47.265Z,7.16
2022-11-24T02:11:13.812Z,7.30
2022-11-24T02:13:42.124Z,7.26
2022-11-24T02:16:11.441Z,7.34
2022-11-24T02:18:39.753Z,7.34
2022-11-24T02:21:07.247Z,7.39
2022-11-24T02:23:49.404Z,7.33
2022-11-24T02:26:41.645Z,7.42
2022-11-24T02:29:10.460Z,7.44
2022-11-24T02:31:38.775Z,7.51
2022-11-24T02:34:05.341Z,7.50
2022-11-24T02:36:31.884Z,7.55
2022-11-24T02:38:58.376Z,7.61
2022-11-24T02:41:27.225Z,7.70
2022-11-24T02:43:58.528Z,7.71
2022-11-24T02:46:25.102Z,7.74
2022-11-24T02:48:53.870Z,7.78
2022-11-24T02:51:20.356Z,7.70
2022-11-24T02:53:46.842Z,7.70
2022-11-24T02:56:13.353Z,7.70
2022-11-24T02:58:39.996Z,7.71
2022-11-24T03:01:06.771Z,7.72
2022-11-24T03:03:33.827Z,7.72
2022-11-24T03:06:00.489Z,7.65
2022-11-24T03:08:27.340Z,7.72
2022-11-24T03:10:54.595Z,7.71
2022-11-24T03:13:21.086Z,7.67
2022-11-24T03:15:47.630Z,7.71
2022-11-24T03:18:14.139Z,7.71
2022-11-24T03:20:40.652Z,7.72
2022-11-24T03:23:07.197Z,7.65
2022-11-24T03:25:33.721Z,7.71
2022-11-24T03:28:00.233Z,7.68
2022-11-24T03:30:27.221Z,7.68
2022-11-24T03:32:54.170Z,7.65
2022-11-24T03:35:21.964Z,7.67
2022-11-24T03:37:49.078Z,7.61
2022-11-24T03:40:16.116Z,7.63
2022-11-24T03:42:42.659Z,7.61
2022-11-24T03:45:37.891Z,7.65
2022-11-24T03:47:55.923Z,7.65
2022-11-24T03:50:22.379Z,7.68
2022-11-24T03:52:48.890Z,7.72
2022-11-24T03:55:15.450Z,7.67
2022-11-24T03:57:41.941Z,7.67
2022-11-24T04:00:09.471Z,7.70
2022-11-24T04:02:35.937Z,7.75
2022-11-24T04:05:02.768Z,7.75
2022-11-24T04:07:29.330Z,7.81
2022-11-24T04:09:55.841Z,7.85
2022-11-24T04:12:40.974Z,7.85
2022-11-24T04:15:07.906Z,7.91
2022-11-24T04:17:34.569Z,7.91
2022-11-24T04:20:01.070Z,7.92
2022-11-24T04:22:28.085Z,7.96
2022-11-24T04:24:54.548Z,8.01
2022-11-24T04:27:21.067Z,8.05
2022-11-24T04:29:47.534Z,8.01
2022-11-24T04:32:14.090Z,8.10
2022-11-24T04:34:40.584Z,8.09
2022-11-24T04:37:07.105Z,8.18
2022-11-24T04:39:33.852Z,8.19
2022-11-24T04:42:00.477Z,8.16
2022-11-24T04:44:27.129Z,8.22
2022-11-24T04:46:53.697Z,8.22
2022-11-24T04:49:20.338Z,8.21
2022-11-24T04:51:47.293Z,8.25
2022-11-24T04:54:14.707Z,8.21
2022-11-24T04:56:42.109Z,8.23
2022-11-24T04:59:12.286Z,8.23
2022-11-24T05:01:39.041Z,8.19
2022-11-24T05:04:05.590Z,8.22
2022-11-24T05:06:33.307Z,8.22
2022-11-24T05:09:00.573Z,8.23
2022-11-24T05:11:27.061Z,8.28
2022-11-24T05:13:53.823Z,8.23
2022-11-24T05:16:20.497Z,8.29
2022-11-24T05:18:47.147Z,8.26
2022-11-24T05:21:13.872Z,8.34
2022-11-24T05:23:40.344Z,8.32
2022-11-24T05:26:06.972Z,8.40
2022-11-24T05:28:33.911Z,8.40
2022-11-24T05:31:02.713Z,8.40
2022-11-24T05:33:30.254Z,8.30
2022-11-24T05:36:02.171Z,8.33
2022-11-24T05:38:29.977Z,8.34
2022-11-24T05:41:04.615Z,8.37
2022-11-24T05:43:31.576Z,8.42
2022-11-24T05:46:01.492Z,8.39
2022-11-24T05:48:28.231Z,8.39
2022-11-24T05:50:58.553Z,8.26
2022-11-24T05:53:26.884Z,8.26
2022-11-24T05:55:53.702Z,8.47
2022-11-24T05:58:20.315Z,8.50
2022-11-24T06:00:47.684Z,8.68
2022-11-24T06:03:14.555Z,8.91
2022-11-24T06:05:46.794Z,9.00
2022-11-24T06:08:13.946Z,9.11
2022-11-24T06:10:40.427Z,9.22
2022-11-24T06:13:07.819Z,9.21
2022-11-24T06:15:35.062Z,9.22
2022-11-24T06:18:01.550Z,9.36
2022-11-24T06:20:32.501Z,9.28
2022-11-24T06:23:00.028Z,9.26
2022-11-24T06:25:26.863Z,9.25
2022-11-24T06:27:53.822Z,9.25
2022-11-24T06:30:20.437Z,9.19
2022-11-24T06:32:49.676Z,9.14
2022-11-24T06:35:17.268Z,9.10
2022-11-24T06:37:43.894Z,9.10
2022-11-24T06:40:10.689Z,9.07
2022-11-24T06:42:37.879Z,9.01
2022-11-24T06:45:08.740Z,9.00
2022-11-24T06:47:36.195Z,9.11
2022-11-24T06:50:02.862Z,9.15
2022-11-24T06:52:29.882Z,9.07
2022-11-24T06:54:57.225Z,9.02
2022-11-24T06:57:23.786Z,8.98
2022-11-24T06:59:50.442Z,8.91
2022-11-24T07:02:17.020Z,8.87
2022-11-24T07:04:43.638Z,8.74
2022-11-24T07:07:10.615Z,8.80
2022-11-24T07:09:37.138Z,8.80
2022-11-24T07:12:04.827Z,8.85
2022-11-24T07:14:32.125Z,8.73
2022-11-24T07:16:58.855Z,8.64
2022-11-24T07:19:25.514Z,8.68
2022-11-24T07:21:52.174Z,8.67
2022-11-24T07:24:18.830Z,8.63
2022-11-24T07:26:45.507Z,8.80
2022-11-24T07:32:36.181Z,8.82
2022-11-24T07:35:02.636Z,8.80
2022-11-24T07:37:31.534Z,8.78
2022-11-24T07:39:58.687Z,8.87
2022-11-24T07:42:25.287Z,8.80
2022-11-24T07:44:51.899Z,8.94
2022-11-24T07:47:18.441Z,8.91
2022-11-24T07:49:45.417Z,8.89
2022-11-24T07:52:11.887Z,8.91
2022-11-24T07:54:38.493Z,8.97
2022-11-24T07:57:04.939Z,8.88
2022-11-24T07:59:31.695Z,8.95
2022-11-24T08:01:58.305Z,8.98
2022-11-24T08:04:24.938Z,8.95
2022-11-24T08:06:51.495Z,8.98
2022-11-24T08:09:17.960Z,9.07
2022-11-24T08:11:44.566Z,9.10
2022-11-24T08:14:11.053Z,9.16
2022-11-24T08:16:38.819Z,9.16
2022-11-24T08:19:05.381Z,9.32
2022-11-24T08:21:32.545Z,9.32
2022-11-24T08:23:59.151Z,9.39
2022-11-24T08:26:25.881Z,9.38
2022-11-24T08:28:57.587Z,9.39
2022-11-24T08:31:27.269Z,9.40
2022-11-24T08:33:55.773Z,9.39
2022-11-24T08:36:22.226Z,9.40
2022-11-24T08:38:49.819Z,9.46
2022-11-24T08:41:16.971Z,9.47
2022-11-24T08:43:43.580Z,9.44
2022-11-24T08:46:13.241Z,9.49
2022-11-24T08:48:40.511Z,9.47
2022-11-24T08:51:12.285Z,9.56
2022-11-24T08:53:39.570Z,9.52
2022-11-24T08:56:06.988Z,9.53
2022-11-24T08:58:34.310Z,9.52
2022-11-24T09:01:06.141Z,9.53
2022-11-24T09:03:32.949Z,9.56
2022-11-24T09:05:59.381Z,9.59
2022-11-24T09:08:26.029Z,9.54
2022-11-24T09:10:52.584Z,9.57
2022-11-24T09:13:19.156Z,9.67
2022-11-24T09:15:46.136Z,9.63
2022-11-24T09:18:12.585Z,9.70
2022-11-24T09:20:39.018Z,9.64
2022-11-24T09:23:05.519Z,9.81
2022-11-24T09:25:32.066Z,9.87
2022-11-24T09:27:59.911Z,9.95
2022-11-24T09:30:26.733Z,9.94
2022-11-24T09:32:56.173Z,9.97
2022-11-24T09:35:23.213Z,10.00
2022-11-24T09:37:49.711Z,9.98
2022-11-24T09:40:17.380Z,10.11
2022-11-24T09:43:15.447Z,10.00
2022-11-24T09:46:06.053Z,10.00
2022-11-24T09:48:40.831Z,10.01
2022-11-24T09:51:11.621Z,10.12
2022-11-24T09:53:48.592Z,10.14
2022-11-24T09:56:22.436Z,10.31
2022-11-24T09:58:59.125Z,10.75
2022-11-24T10:01:35.712Z,10.96
2022-11-24T10:04:06.318Z,10.77
2022-11-24T10:06:44.633Z,11.03
2022-11-24T10:09:37.705Z,11.28
2022-11-24T10:12:27.603Z,12.03
2022-11-24T10:15:24.591Z,11.90
2022-11-24T10:18:28.003Z,11.62
2022-11-24T10:21:16.741Z,11.76
2022-11-24T10:23:46.122Z,12.18
2022-11-24T10:26:40.257Z,12.30
2022-11-24T10:29:13.823Z,12.61
2022-11-24T10:31:43.326Z,12.51
2022-11-24T10:34:17.715Z,12.06
2022-11-24T10:36:50.807Z,11.79
2022-11-24T10:39:23.771Z,12.47
2022-11-24T10:42:07.540Z,12.91
2022-11-24T10:44:34.113Z,12.53
2022-11-24T10:47:00.603Z,13.05
2022-11-24T10:49:32.378Z,12.93
2022-11-24T10:52:10.120Z,13.07
2022-11-24T10:54:37.029Z,12.68
2022-11-24T10:57:03.749Z,13.30
2022-11-24T10:59:38.003Z,13.07
2022-11-24T11:02:30.033Z,13.06
2022-11-24T11:04:56.781Z,13.18
2022-11-24T11:07:26.265Z,12.46
2022-11-24T11:10:23.381Z,12.98
2022-11-24T11:12:50.064Z,12.69
2022-11-24T11:15:24.398Z,13.09
2022-11-24T11:17:54.509Z,13.40
2022-11-24T11:20:39.289Z,12.98
2022-11-24T11:23:21.403Z,12.84
2022-11-24T11:25:48.581Z,13.26
2022-11-24T11:28:18.712Z,12.88
2022-11-24T11:34:35.560Z,13.43
2022-11-24T11:37:04.181Z,13.78
2022-11-24T11:39:36.626Z,14.22
2022-11-24T11:43:00.019Z,13.94
2022-11-24T11:45:21.067Z,14.67
2022-11-24T11:47:56.812Z,13.40
2022-11-24T11:51:21.019Z,13.00
2022-11-24T11:53:47.223Z,12.89
2022-11-24T11:56:32.961Z,12.88
2022-11-24T11:59:33.433Z,13.77
2022-11-24T12:02:34.238Z,13.50
2022-11-24T12:05:09.093Z,13.46
2022-11-24T12:07:57.460Z,13.51
2022-11-24T12:10:46.118Z,14.14
2022-11-24T12:13:34.272Z,14.06
2022-11-24T12:16:16.848Z,14.14
2022-11-24T12:19:08.833Z,14.33
2022-11-24T12:21:38.277Z,13.57
2022-11-24T12:24:17.839Z,13.98
2022-11-24T12:26:51.003Z,13.39
2022-11-24T12:29:42.046Z,13.67
2022-11-24T12:32:47.077Z,13.58
2022-11-24T12:35:28.853Z,13.23
2022-11-24T12:38:30.681Z,12.76
2022-11-24T12:41:41.272Z,13.09
2022-11-24T12:44:30.827Z,14.04
2022-11-24T12:47:10.237Z,13.77
2022-11-24T12:50:03.811Z,13.13
2022-11-24T12:52:38.771Z,14.09
2022-11-24T12:55:12.518Z,14.26
2022-11-24T12:57:50.699Z,13.98
2022-11-24T13:00:22.291Z,14.22
2022-11-24T13:02:57.740Z,13.81
2022-11-24T13:05:35.102Z,14.39
2022-11-24T13:08:04.771Z,14.67
2022-11-24T13:10:57.124Z,14.93
2022-11-24T13:13:30.214Z,14.53
2022-11-24T13:18:52.560Z,14.00
2022-11-24T13:21:29.429Z,13.56
2022-11-24T13:24:21.412Z,13.42
2022-11-24T13:26:51.986Z,13.57
2022-11-24T13:29:39.522Z,13.50
2022-11-24T13:32:06.031Z,14.06
2022-11-24T13:34:42.853Z,14.33
2022-11-24T13:37:34.282Z,14.30
2022-11-24T13:40:31.168Z,14.56
2022-11-24T13:42:57.725Z,14.60
2022-11-24T13:45:39.943Z,14.42
2022-11-24T13:48:18.759Z,13.63
2022-11-24T13:50:51.460Z,14.00
2022-11-24T13:53:38.404Z,13.87
2022-11-24T13:56:14.397Z,14.04
2022-11-24T13:58:45.170Z,13.85
2022-11-24T14:01:17.448Z,14.21
2022-11-24T14:04:28.549Z,14.52
2022-11-24T14:06:53.175Z,14.60
2022-11-24T14:09:36.254Z,14.08
2022-11-24T14:12:23.129Z,14.23
2022-11-24T14:14:51.850Z,13.67
2022-11-24T14:17:28.641Z,13.44
2022-11-24T14:19:57.489Z,13.47
2022-11-24T14:22:43.517Z,13.26
2022-11-24T14:25:26.582Z,13.34
2022-11-24T14:27:53.565Z,13.19
2022-11-24T14:30:22.816Z,13.30
2022-11-24T14:32:59.497Z,13.13
2022-11-24T14:35:34.472Z,13.05
2022-11-24T14:38:05.915Z,12.96
2022-11-24T14:40:38.469Z,12.89
2022-11-24T14:43:20.422Z,12.84
2022-11-24T14:45:53.025Z,12.89
2022-11-24T14:48:25.341Z,12.72
2022-11-24T14:50:52.140Z,12.81
2022-11-24T14:53:26.279Z,12.84
2022-11-24T14:56:11.121Z,12.84
2022-11-24T14:58:42.057Z,12.76
2022-11-24T15:01:18.405Z,12.55
2022-11-24T15:03:45.404Z,12.40
2022-11-24T15:06:18.822Z,12.24
2022-11-24T15:08:48.242Z,12.09
2022-11-24T15:11:15.547Z,12.03
2022-11-24T15:13:54.395Z,11.93
2022-11-24T15:16:25.900Z,11.86
2022-11-24T15:19:01.025Z,11.69
2022-11-24T15:21:33.809Z,11.72
2022-11-24T15:24:17.832Z,11.61
2022-11-24T15:26:45.389Z,11.49
2022-11-24T15:29:13.062Z,11.41
2022-11-24T15:31:41.333Z,11.32
2022-11-24T15:34:13.622Z,11.30
2022-11-24T15:36:40.110Z,11.27
2022-11-24T15:39:06.597Z,11.26
2022-11-24T15:41:33.896Z,11.16
2022-11-24T15:44:00.546Z,11.07
2022-11-24T15:46:28.811Z,11.00
2022-11-24T15:48:55.831Z,10.99
2022-11-24T15:51:25.856Z,10.84
2022-11-24T15:53:58.862Z,10.75
2022-11-24T15:56:33.808Z,10.83
2022-11-24T15:59:01.689Z,10.83
2022-11-24T16:01:33.293Z,10.84
2022-11-24T16:04:01.232Z,10.72
2022-11-24T16:06:28.082Z,10.66
2022-11-24T16:08:54.789Z,10.55
2022-11-24T16:11:22.531Z,10.49
2022-11-24T16:13:53.065Z,10.45
2022-11-24T16:16:21.759Z,10.53
2022-11-24T16:18:48.402Z,10.53
2022-11-24T16:21:15.116Z,10.56
2022-11-24T16:23:41.911Z,10.62
2022-11-24T16:26:09.926Z,10.53
2022-11-24T16:28:36.439Z,10.60
2022-11-24T16:31:03.008Z,10.52
2022-11-24T16:33:30.278Z,10.55
2022-11-24T16:35:56.939Z,10.48
2022-11-24T16:38:23.585Z,10.50
2022-11-24T16:40:54.385Z,10.53
2022-11-24T16:43:20.988Z,10.49
2022-11-24T16:46:04.689Z,10.56
2022-11-24T16:48:36.018Z,10.48
2022-11-24T16:51:07.323Z,10.38
2022-11-24T16:53:34.094Z,10.41
2022-11-24T16:56:00.656Z,10.39
2022-11-24T16:58:27.204Z,10.31
2022-11-24T17:00:53.868Z,10.20
2022-11-24T17:03:20.512Z,10.28
2022-11-24T17:06:00.450Z,10.21
2022-11-24T17:08:26.986Z,10.05
2022-11-24T17:10:53.533Z,10.05
2022-11-24T17:13:20.006Z,9.91
2022-11-24T17:15:52.636Z,9.86
2022-11-24T17:18:25.206Z,9.80
2022-11-24T17:20:52.086Z,9.74
2022-11-24T17:23:19.721Z,9.59
2022-11-24T17:25:46.717Z,9.40
2022-11-24T17:28:13.199Z,9.44
2022-11-24T17:30:39.678Z,9.35
2022-11-24T17:33:06.337Z,9.19
2022-11-24T17:35:35.766Z,9.28
2022-11-24T17:38:02.485Z,9.19
2022-11-24T17:40:29.789Z,9.15
2022-11-24T17:43:02.692Z,9.05
2022-11-24T17:45:30.447Z,8.91
2022-11-24T17:48:00.279Z,8.94
2022-11-24T17:50:27.243Z,8.85
2022-11-24T17:52:54.295Z,8.84
2022-11-24T17:55:21.275Z,8.84
2022-11-24T17:57:47.783Z,8.74
2022-11-24T18:00:14.910Z,8.73
2022-11-24T18:02:41.408Z,8.60
2022-11-24T18:05:08.346Z,8.56
2022-11-24T18:07:38.010Z,8.44
2022-11-24T18:10:05.123Z,8.61
2022-11-24T18:12:32.594Z,8.54
2022-11-24T18:14:59.177Z,8.46
2022-11-24T18:17:26.017Z,8.37
2022-11-24T18:19:52.552Z,8.32
2022-11-24T18:22:36.588Z,8.25
2022-11-24T18:25:07.006Z,8.30
2022-11-24T18:27:33.465Z,8.34
2022-11-24T18:30:00.039Z,8.46
2022-11-24T18:32:26.761Z,8.37
2022-11-24T18:34:54.077Z,8.44
2022-11-24T18:37:20.601Z,8.21
2022-11-24T18:39:47.113Z,8.23
2022-11-24T18:42:13.706Z,8.23
2022-11-24T18:44:42.272Z,8.18
2022-11-24T18:47:09.034Z,8.10
2022-11-24T18:49:35.478Z,8.13
2022-11-24T18:52:02.169Z,8.19
2022-11-24T18:57:36.185Z,7.98
2022-11-24T19:00:03.345Z,8.09
2022-11-24T19:02:29.905Z,8.02
2022-11-24T19:04:56.536Z,7.96
2022-11-24T19:07:23.121Z,7.96
2022-11-24T19:09:49.780Z,7.95
2022-11-24T19:12:16.349Z,7.96
2022-11-24T19:14:42.818Z,8.03
2022-11-24T19:17:09.347Z,7.95
2022-11-24T19:19:35.966Z,7.88
2022-11-24T19:22:03.521Z,7.88
2022-11-24T19:24:30.298Z,7.86
2022-11-24T19:26:56.871Z,7.85
2022-11-24T19:29:23.366Z,7.84
2022-11-24T19:31:49.911Z,7.84
2022-11-24T19:34:16.532Z,7.81
2022-11-24T19:36:43.390Z,7.77
2022-11-24T19:39:15.327Z,7.68
2022-11-24T19:41:42.230Z,7.57
2022-11-24T19:44:11.697Z,7.68
2022-11-24T19:46:39.900Z,7.65
2022-11-24T19:49:08.305Z,7.71
2022-11-24T19:51:38.611Z,7.61
2022-11-24T19:54:07.303Z,7.63
2022-11-24T19:56:37.405Z,7.61
2022-11-24T19:59:06.465Z,7.55
2022-11-24T20:01:39.421Z,7.50
2022-11-24T20:04:09.041Z,7.47
2022-11-24T20:06:38.242Z,7.51
2022-11-24T20:09:07.812Z,7.42
2022-11-24T20:11:34.458Z,7.53
2022-11-24T20:14:01.203Z,7.57
2022-11-24T20:16:30.078Z,7.67
2022-11-24T20:19:00.998Z,7.74
2022-11-24T20:21:33.491Z,7.74
2022-11-24T20:24:06.554Z,7.65
2022-11-24T20:26:36.569Z,7.70
2022-11-24T20:29:04.561Z,7.61
2022-11-24T20:31:37.212Z,7.58
2022-11-24T20:34:05.193Z,7.58
2022-11-24T20:36:33.188Z,7.40
2022-11-24T20:39:01.270Z,7.44
2022-11-24T20:41:30.887Z,7.40
2022-11-24T20:44:00.928Z,7.35
2022-11-24T20:46:30.144Z,7.37
2022-11-24T20:48:57.249Z,7.37
2022-11-24T20:51:29.116Z,7.28
2022-11-24T20:53:58.998Z,7.24
2022-11-24T20:56:28.683Z,7.34
2022-11-24T20:58:55.552Z,7.30
2022-11-24T21:01:24.842Z,7.22
2022-11-24T21:03:53.693Z,7.17
2022-11-24T21:06:20.694Z,7.17
2022-11-24T21:08:47.311Z,7.13
2022-11-24T21:11:14.980Z,7.06
2022-11-24T21:13:44.955Z,6.99
2022-11-24T21:16:16.075Z,6.99
2022-11-24T21:18:44.666Z,6.97
2022-11-24T21:21:12.540Z,6.96
2022-11-24T21:23:39.221Z,6.95
2022-11-24T21:26:13.049Z,6.97
2022-11-24T21:28:44.368Z,7.02
2022-11-24T21:31:15.571Z,7.00
2022-11-24T21:33:44.912Z,6.99
2022-11-24T21:36:14.635Z,7.03
2022-11-24T21:38:42.760Z,7.03
2022-11-24T21:41:11.427Z,7.02
2022-11-24T21:43:47.701Z,7.12
2022-11-24T21:46:14.907Z,7.12
2022-11-24T21:48:42.669Z,7.03
2022-11-24T21:51:17.091Z,7.09
2022-11-24T21:53:45.818Z,7.09
2022-11-24T21:56:14.612Z,7.12
2022-11-24T21:58:49.308Z,7.13
2022-11-24T22:01:18.563Z,7.16
2022-11-24T22:03:46.094Z,7.20
2022-11-24T22:06:13.193Z,7.24
2022-11-24T22:08:40.896Z,7.28
2022-11-24T22:11:12.051Z,7.33
2022-11-24T22:13:39.286Z,7.40
2022-11-24T22:16:11.780Z,7.40
2022-11-24T22:18:41.088Z,7.46
2022-11-24T22:21:10.799Z,7.46
2022-11-24T22:23:37.558Z,7.53
2022-11-24T22:26:07.019Z,7.50
2022-11-24T22:28:35.427Z,7.44
2022-11-24T22:31:16.778Z,7.46
2022-11-24T22:33:44.404Z,7.42
2022-11-24T22:36:15.696Z,7.48
2022-11-24T22:38:43.238Z,7.53
2022-11-24T22:41:15.040Z,7.60
2022-11-24T22:43:43.881Z,7.71
2022-11-24T22:46:14.434Z,7.75
2022-11-24T22:48:41.921Z,7.81
2022-11-24T22:51:11.369Z,7.82
2022-11-24T22:53:38.655Z,7.88
2022-11-24T22:56:07.476Z,7.89
2022-11-24T22:58:34.152Z,7.95
2022-11-24T23:01:19.272Z,7.93
2022-11-24T23:03:46.166Z,8.05
2022-11-24T23:06:18.405Z,8.12
2022-11-24T23:08:45.164Z,8.16
2022-11-24T23:11:17.582Z,8.19
2022-11-24T23:13:44.643Z,8.25
2022-11-24T23:16:14.278Z,8.30
2022-11-24T23:18:41.168Z,8.34
2022-11-24T23:21:18.740Z,8.37
2022-11-24T23:23:46.575Z,8.34
2022-11-24T23:26:16.140Z,8.36
2022-11-24T23:28:43.514Z,8.36
2022-11-24T23:31:15.122Z,8.34
2022-11-24T23:33:42.193Z,8.36
2022-11-24T23:36:14.803Z,8.34
2022-11-24T23:38:41.961Z,8.37
2022-11-24T23:41:12.043Z,8.39
2022-11-24T23:43:44.221Z,8.34
2022-11-24T23:49:14.067Z,8.29
2022-11-24T23:51:44.573Z,8.28
2022-11-24T23:54:36.380Z,8.34
2022-11-24T23:57:08.903Z,8.28
